Terminal Aerodrome Forecast
Issued by NWS Grand Forks, ND

Home | Current Version | Previous Version | Graphics & Text | Print | Product List | Glossary On
Versions: 1 2 3 4 5 6 7 8 9 10 11 12 13 14 15 16 17 18 19 20
000
FTUS43 KFGF 212339
TAFGFK
TAF
KGFK 212339Z 2200/2224 30006KT P6SM SCT250
     FM220500 VRB04KT P6SM SCT200
     FM221200 18009KT P6SM BKN050
     FM221600 18014G22KT P6SM SCT025 BKN040=

USA.gov is the U.S. government's official web portal to all federal, state and local government web resources and services.